Time;durP1;ratioP1;P1;durP2;ratioP2;P2;SDS_P1;SDS_P2;PMS_P1;PMS_P2;Temp;Humidity;BMP_temperature;BMP_pressure;BME280_temperature;BME280_humidity;BME280_pressure;Samples;Min_cycle;Max_cycle;Signal;HPM_P1;HPM_P2
2021/08/31 00:00:47;;;;;;;4.80;2.60;;;;;;;23.27;57.33;102977.94;5087144;28;20388;-71
2021/08/31 00:03:12;;;;;;;4.18;2.38;;;;;;;23.27;57.12;102986.00;5091003;28;20131;-70
2021/08/31 00:05:38;;;;;;;4.47;2.50;;;;;;;23.28;57.20;102984.16;5090087;28;20044;-71
2021/08/31 00:08:04;;;;;;;4.15;2.38;;;;;;;23.26;57.31;102978.97;5056061;28;20560;-70
2021/08/31 00:10:29;;;;;;;4.68;2.33;;;;;;;23.28;57.23;102979.63;5089861;28;20342;-71
2021/08/31 00:12:54;;;;;;;4.68;2.70;;;;;;;23.26;57.28;102978.13;5089145;28;20040;-71
2021/08/31 00:15:20;;;;;;;4.10;2.40;;;;;;;23.27;57.49;102977.13;5072818;28;20024;-71
2021/08/31 00:17:45;;;;;;;4.60;2.58;;;;;;;23.27;57.42;102977.13;5089817;28;20146;-71
2021/08/31 00:20:12;;;;;;;4.13;2.35;;;;;;;23.26;57.23;102981.63;5071377;28;20482;-71
2021/08/31 00:22:37;;;;;;;4.35;2.20;;;;;;;23.27;57.22;102982.47;5090297;28;20132;-71
2021/08/31 00:25:08;;;;;;;4.85;2.20;;;;;;;23.25;57.23;102979.97;5090303;28;20526;-71
2021/08/31 00:27:33;;;;;;;4.68;2.42;;;;;;;23.26;57.16;102980.81;5090070;28;20043;-71
2021/08/31 00:29:59;;;;;;;4.15;2.30;;;;;;;23.26;57.13;102987.00;5071362;28;20408;-71
2021/08/31 00:32:24;;;;;;;3.72;2.47;;;;;;;23.25;57.38;102985.31;5072455;28;20084;-70
2021/08/31 00:34:51;;;;;;;4.72;2.33;;;;;;;23.26;57.18;102987.00;5089696;28;20047;-71
2021/08/31 00:37:16;;;;;;;3.60;2.10;;;;;;;23.25;57.41;102985.31;5090131;28;20139;-71
2021/08/31 00:39:42;;;;;;;4.50;2.28;;;;;;;23.26;57.13;102983.47;5089209;28;20128;-71
2021/08/31 00:42:07;;;;;;;8.35;2.65;;;;;;;23.25;57.30;102981.81;5071466;28;20094;-71
2021/08/31 00:44:33;;;;;;;4.70;2.47;;;;;;;23.25;57.41;102985.31;5071980;28;20039;-71
2021/08/31 00:46:59;;;;;;;4.47;2.20;;;;;;;23.26;57.51;102983.47;5071548;28;20406;-71
2021/08/31 00:49:26;;;;;;;3.63;2.00;;;;;;;23.25;57.35;102987.16;5071407;28;20047;-71
2021/08/31 00:51:53;;;;;;;4.13;2.20;;;;;;;23.26;57.31;102986.16;5089268;28;20043;-71
2021/08/31 00:54:22;;;;;;;3.70;2.10;;;;;;;23.25;57.20;102988.00;5089994;28;20119;-71
2021/08/31 00:56:49;;;;;;;2.72;1.88;;;;;;;23.25;57.27;102990.69;5089000;28;20534;-71
2021/08/31 00:59:19;;;;;;;4.30;2.13;;;;;;;23.26;57.23;102984.31;5089353;28;20070;-71
2021/08/31 01:01:55;;;;;;;4.50;2.00;;;;;;;23.25;57.36;102995.19;5071582;28;20036;-71
2021/08/31 01:04:25;;;;;;;4.85;2.22;;;;;;;23.24;57.32;102985.50;5089524;28;20028;-71
2021/08/31 01:06:52;;;;;;;4.30;2.08;;;;;;;23.24;57.52;102989.00;5088987;28;20032;-71
2021/08/31 01:09:19;;;;;;;3.65;1.92;;;;;;;23.25;57.19;102989.84;5086810;28;20522;-71
2021/08/31 01:11:47;;;;;;;3.60;1.90;;;;;;;23.24;57.40;102990.84;5089353;28;20032;-71
2021/08/31 01:14:12;;;;;;;4.47;2.03;;;;;;;23.24;57.48;102994.38;5089886;28;20032;-71
2021/08/31 01:16:38;;;;;;;4.20;2.10;;;;;;;23.23;57.21;102991.84;5070880;28;20127;-71
2021/08/31 01:19:04;;;;;;;3.75;2.10;;;;;;;23.24;57.11;102998.88;5089525;28;20040;-71
2021/08/31 01:21:30;;;;;;;2.95;1.88;;;;;;;23.23;57.34;103003.41;5088700;28;20147;-71
2021/08/31 01:23:56;;;;;;;2.65;1.58;;;;;;;23.23;57.06;103000.72;5079248;28;20106;-72
2021/08/31 01:26:21;;;;;;;3.17;1.95;;;;;;;23.23;57.24;102992.69;5089913;28;20035;-71
2021/08/31 01:28:47;;;;;;;2.80;1.90;;;;;;;23.24;57.16;102993.53;5070410;28;20040;-71
2021/08/31 01:31:13;;;;;;;3.53;1.90;;;;;;;23.23;57.29;102992.69;5071302;28;20085;-71
2021/08/31 01:33:38;;;;;;;4.60;2.47;;;;;;;23.23;57.29;102992.69;5088034;28;20070;-71
2021/08/31 01:36:23;;;;;;;3.53;2.13;;;;;;;23.19;57.00;102996.69;5070993;28;20479;-71
2021/08/31 01:38:51;;;;;;;3.53;2.33;;;;;;;23.22;57.22;102991.03;5084265;28;20132;-71
2021/08/31 01:41:17;;;;;;;3.38;2.08;;;;;;;23.23;57.44;103000.72;5062064;28;20030;-71
2021/08/31 01:43:43;;;;;;;3.13;1.83;;;;;;;23.23;57.28;103003.41;5087938;28;20076;-70
2021/08/31 01:46:09;;;;;;;4.05;1.73;;;;;;;23.23;57.06;103000.72;5089449;28;20134;-70
2021/08/31 01:48:35;;;;;;;3.80;2.00;;;;;;;23.23;57.17;102999.88;5088858;28;20118;-70
2021/08/31 01:51:01;;;;;;;3.28;1.90;;;;;;;23.22;57.16;102996.38;5071464;28;20465;-70
2021/08/31 01:53:27;;;;;;;3.67;1.80;;;;;;;23.23;57.16;102999.88;5084386;28;20499;-70
2021/08/31 01:55:52;;;;;;;4.72;2.00;;;;;;;23.23;57.08;103002.56;5070905;28;20119;-70
2021/08/31 01:58:17;;;;;;;3.55;2.03;;;;;;;23.22;57.47;103004.41;5088910;28;20498;-70
2021/08/31 02:00:43;;;;;;;3.50;2.03;;;;;;;23.22;57.21;103009.75;5088210;28;20040;-70
2021/08/31 02:03:08;;;;;;;4.50;1.90;;;;;;;23.21;57.24;103013.44;5088454;28;20064;-71
2021/08/31 02:05:34;;;;;;;3.75;1.63;;;;;;;23.21;57.15;103016.13;5053479;28;20032;-71
2021/08/31 02:08:00;;;;;;;3.58;1.90;;;;;;;23.22;57.25;103011.59;5089147;28;20356;-70
2021/08/31 02:10:26;;;;;;;3.50;1.80;;;;;;;23.22;57.20;103014.28;5089181;28;20039;-70
2021/08/31 02:12:51;;;;;;;3.25;1.80;;;;;;;23.21;57.23;103012.63;5052726;28;20032;-70
2021/08/31 02:15:17;;;;;;;3.40;1.88;;;;;;;23.21;57.41;103021.47;5069614;28;20093;-70
2021/08/31 02:17:42;;;;;;;3.70;1.80;;;;;;;23.21;56.97;103017.97;5066938;28;20059;-70
2021/08/31 02:20:09;;;;;;;4.28;2.05;;;;;;;23.21;57.24;103015.28;5088247;28;20039;-70
2021/08/31 02:22:35;;;;;;;4.35;1.83;;;;;;;23.21;57.19;103018.81;5070732;28;20105;-70
2021/08/31 02:25:01;;;;;;;3.30;1.88;;;;;;;23.20;57.05;103013.63;5088445;28;20044;-70
2021/08/31 02:27:27;;;;;;;2.38;1.45;;;;;;;23.20;57.28;103009.09;5087218;28;20058;-70
2021/08/31 02:29:52;;;;;;;3.40;1.70;;;;;;;23.20;57.11;103017.13;5087835;28;20028;-70
2021/08/31 02:32:18;;;;;;;3.15;1.70;;;;;;;23.20;57.19;103019.81;5088829;28;20399;-70
2021/08/31 02:34:43;;;;;;;2.97;1.63;;;;;;;23.20;57.02;103018.97;5088383;28;20123;-70
2021/08/31 02:37:09;;;;;;;2.80;1.70;;;;;;;23.21;57.08;103015.28;5091791;28;20028;-70
2021/08/31 02:39:35;;;;;;;2.28;1.35;;;;;;;23.20;57.13;103018.97;5079471;28;20463;-70
2021/08/31 02:42:00;;;;;;;2.63;1.58;;;;;;;23.20;57.12;103019.81;5068563;28;20047;-70
2021/08/31 02:44:26;;;;;;;2.97;1.50;;;;;;;23.20;57.01;103016.28;5072430;28;20032;-70
2021/08/31 02:46:51;;;;;;;3.47;1.58;;;;;;;23.20;56.98;103019.81;5053618;28;20033;-70
2021/08/31 02:49:17;;;;;;;2.70;1.40;;;;;;;23.20;57.21;103018.97;5071841;28;20472;-70
2021/08/31 02:51:42;;;;;;;3.35;2.22;;;;;;;23.19;56.91;103015.44;5071045;28;20468;-70
2021/08/31 02:54:08;;;;;;;3.90;1.58;;;;;;;23.21;56.70;103015.28;5066298;28;20090;-70
2021/08/31 02:56:33;;;;;;;3.05;1.38;;;;;;;23.20;57.06;103018.97;5037125;28;20040;-71
2021/08/31 02:58:59;;;;;;;3.40;1.50;;;;;;;23.19;57.22;103026.13;5071269;28;20058;-70
2021/08/31 03:04:08;;;;;;;3.42;1.60;;;;;;;23.17;56.84;103028.16;5071679;28;20039;-70
2021/08/31 03:06:34;;;;;;;2.70;1.40;;;;;;;23.18;57.00;103031.66;5071728;28;20048;-70
2021/08/31 03:08:59;;;;;;;3.95;1.55;;;;;;;23.18;56.88;103024.47;5053661;28;20041;-71
2021/08/31 03:11:27;;;;;;;3.30;1.50;;;;;;;23.18;56.45;103026.31;5070637;28;20087;-70
2021/08/31 03:13:52;;;;;;;2.83;1.50;;;;;;;23.18;56.85;103032.50;5071440;28;20059;-71
2021/08/31 03:16:18;;;;;;;3.40;1.60;;;;;;;23.17;56.58;103028.16;5071157;28;20349;-70
2021/08/31 03:18:43;;;;;;;3.30;1.73;;;;;;;23.16;56.98;103037.19;5053238;28;20036;-70
2021/08/31 03:21:09;;;;;;;3.20;1.70;;;;;;;23.18;56.80;103045.06;5071245;28;20042;-70
2021/08/31 03:23:34;;;;;;;3.10;1.63;;;;;;;23.18;56.82;103039.69;5070494;28;20036;-71
2021/08/31 03:26:00;;;;;;;2.33;1.40;;;;;;;23.17;56.85;103036.19;5053223;28;20407;-70
2021/08/31 03:28:26;;;;;;;3.92;2.05;;;;;;;23.17;56.79;103038.03;5071005;28;20043;-71
2021/08/31 03:30:51;;;;;;;3.22;1.73;;;;;;;23.16;56.74;103033.69;5053023;28;20032;-70
2021/08/31 03:33:17;;;;;;;3.47;1.42;;;;;;;23.17;56.38;103041.53;5034980;28;20043;-70
2021/08/31 03:35:42;;;;;;;2.45;1.38;;;;;;;23.16;56.99;103039.88;5052449;28;20036;-71
2021/08/31 03:38:08;;;;;;;2.95;1.50;;;;;;;23.17;57.13;103043.38;5071141;28;20494;-71
2021/08/31 03:40:34;;;;;;;3.15;1.48;;;;;;;23.17;56.55;103036.19;5069096;28;20059;-71
2021/08/31 03:43:00;;;;;;;4.68;1.40;;;;;;;23.16;56.67;103026.47;5070104;28;20044;-70
2021/08/31 03:45:25;;;;;;;4.38;1.75;;;;;;;23.16;56.78;103033.69;5070560;28;20444;-70
2021/08/31 03:47:51;;;;;;;3.15;1.67;;;;;;;23.15;56.44;103030.16;5064713;28;20585;-70
2021/08/31 03:50:16;;;;;;;2.83;1.42;;;;;;;23.16;56.71;103041.72;5068189;28;20484;-70
2021/08/31 03:52:41;;;;;;;3.17;1.67;;;;;;;23.14;56.92;103033.84;5071171;28;20028;-70
2021/08/31 03:55:08;;;;;;;2.67;1.25;;;;;;;23.15;56.82;103038.19;5070082;28;20071;-70
2021/08/31 03:57:33;;;;;;;3.15;1.33;;;;;;;23.15;56.90;103038.19;5070497;28;20110;-71
2021/08/31 03:59:59;;;;;;;2.17;1.17;;;;;;;23.15;56.55;103034.69;5059961;28;20068;-70
2021/08/31 04:02:24;;;;;;;3.33;1.60;;;;;;;23.14;56.53;103036.53;5055718;28;20040;-70
2021/08/31 04:04:50;;;;;;;2.25;1.20;;;;;;;23.14;56.64;103036.53;5070627;28;20040;-70
2021/08/31 04:07:17;;;;;;;3.55;1.55;;;;;;;23.15;56.57;103035.50;5051374;28;20473;-70
2021/08/31 04:09:42;;;;;;;3.97;1.50;;;;;;;23.15;56.50;103038.19;5070210;28;20108;-71
2021/08/31 04:12:08;;;;;;;2.55;1.15;;;;;;;23.14;56.48;103039.19;5044478;28;20128;-70
2021/08/31 04:14:34;;;;;;;2.88;1.45;;;;;;;23.15;56.71;103042.72;5070928;28;20124;-70
2021/08/31 04:16:59;;;;;;;3.67;1.33;;;;;;;23.14;56.60;103036.53;5069992;28;20032;-70
2021/08/31 04:19:25;;;;;;;2.85;1.40;;;;;;;23.14;56.78;103041.88;5069979;28;20048;-70
2021/08/31 04:21:50;;;;;;;2.90;1.23;;;;;;;23.14;56.81;103046.41;5069696;28;20033;-70
2021/08/31 04:24:16;;;;;;;2.55;1.30;;;;;;;23.14;56.41;103046.41;5067134;28;20029;-70
2021/08/31 04:26:41;;;;;;;3.15;1.15;;;;;;;23.14;56.45;103054.44;5069710;28;20047;-70
2021/08/31 04:29:07;;;;;;;3.67;1.40;;;;;;;23.13;56.57;103058.94;5069120;28;20070;-70
2021/08/31 04:31:32;;;;;;;3.35;1.38;;;;;;;23.13;56.53;103058.94;5070309;28;20047;-70
2021/08/31 04:33:58;;;;;;;4.80;1.45;;;;;;;23.12;56.58;103051.91;5069988;28;20494;-70
2021/08/31 04:36:23;;;;;;;3.80;1.70;;;;;;;23.14;56.46;103057.09;5037684;28;20036;-70
2021/08/31 04:38:49;;;;;;;4.18;1.40;;;;;;;23.13;56.29;103060.78;5051760;28;20405;-70
2021/08/31 04:41:14;;;;;;;2.70;1.40;;;;;;;23.12;56.56;103059.97;5057571;28;20486;-71
2021/08/31 04:43:40;;;;;;;2.15;1.10;;;;;;;23.13;56.65;103060.78;5059589;28;20047;-70
2021/08/31 04:46:06;;;;;;;2.00;1.30;;;;;;;23.11;56.41;103063.63;5033191;28;20492;-70
2021/08/31 04:48:31;;;;;;;3.00;1.48;;;;;;;23.12;56.28;103059.97;5064399;28;20043;-71
2021/08/31 04:50:56;;;;;;;2.55;1.20;;;;;;;23.11;56.43;103066.31;5067707;28;20068;-70
2021/08/31 04:53:22;;;;;;;3.63;1.30;;;;;;;23.12;56.62;103065.31;5059722;28;20028;-70
2021/08/31 04:55:48;;;;;;;2.42;1.42;;;;;;;23.12;56.50;103067.16;5069595;28;20043;-70
2021/08/31 04:58:14;;;;;;;4.82;1.45;;;;;;;23.11;56.35;103060.13;5068353;28;20033;-70
2021/08/31 05:00:39;;;;;;;3.03;1.20;;;;;;;23.12;56.62;103069.81;5062809;28;20028;-70
2021/08/31 05:03:05;;;;;;;2.08;1.08;;;;;;;23.12;56.28;103067.16;5068925;28;20545;-70
2021/08/31 05:05:30;;;;;;;2.35;1.30;;;;;;;23.11;56.56;103063.63;5040212;28;20469;-70
2021/08/31 05:07:56;;;;;;;2.58;1.27;;;;;;;23.10;56.28;103069.16;5061945;28;20061;-70
2021/08/31 05:10:22;;;;;;;2.22;1.23;;;;;;;23.10;56.58;103067.31;5069217;28;20020;-70
2021/08/31 05:12:47;;;;;;;2.85;1.40;;;;;;;23.10;56.54;103066.47;5065341;28;20032;-71
2021/08/31 05:15:12;;;;;;;3.03;1.33;;;;;;;23.11;56.27;103068.16;5060995;28;20048;-70
2021/08/31 05:17:39;;;;;;;3.42;1.27;;;;;;;23.10;56.36;103070.00;5067910;28;20581;-70
2021/08/31 05:20:05;;;;;;;4.05;1.50;;;;;;;23.10;56.26;103072.69;5068393;28;20032;-71
2021/08/31 05:22:31;;;;;;;1.92;0.90;;;;;;;23.10;56.31;103070.00;5068953;28;20178;-70
2021/08/31 05:25:00;;;;;;;2.65;1.25;;;;;;;23.09;56.35;103076.34;5068906;28;20131;-70
2021/08/31 05:27:26;;;;;;;2.60;1.30;;;;;;;23.10;56.15;103078.03;5068589;28;20029;-70
2021/08/31 05:29:51;;;;;;;2.72;1.23;;;;;;;23.09;56.13;103081.72;5058227;28;20083;-70
2021/08/31 05:32:17;;;;;;;2.30;1.20;;;;;;;23.09;56.29;103087.06;5066304;28;20044;-70
2021/08/31 05:34:43;;;;;;;3.20;1.35;;;;;;;23.09;56.50;103088.91;5069421;28;20045;-70
2021/08/31 05:37:08;;;;;;;2.40;1.40;;;;;;;23.08;56.28;103088.06;5068331;28;20530;-70
2021/08/31 05:39:34;;;;;;;2.90;1.30;;;;;;;23.10;56.19;103090.56;5075299;28;20052;-70
2021/08/31 05:42:05;;;;;;;2.63;1.23;;;;;;;23.08;56.37;103089.91;5077323;28;20050;-70
2021/08/31 05:44:31;;;;;;;2.42;1.38;;;;;;;23.09;56.22;103096.94;5088964;28;20024;-70
2021/08/31 05:46:57;;;;;;;2.72;1.10;;;;;;;23.08;56.21;103093.44;5088562;28;20119;-70
2021/08/31 05:49:23;;;;;;;2.92;1.10;;;;;;;23.09;55.99;103092.41;5070831;28;20155;-70
2021/08/31 05:51:48;;;;;;;1.90;0.93;;;;;;;23.09;56.32;103092.41;5097564;28;20057;-71
2021/08/31 05:54:14;;;;;;;2.67;1.17;;;;;;;23.08;56.44;103092.59;5076682;28;20040;-70
2021/08/31 05:56:39;;;;;;;2.65;1.10;;;;;;;23.07;56.18;103099.78;5088572;28;20043;-70
2021/08/31 05:59:05;;;;;;;3.13;1.10;;;;;;;23.08;56.08;103101.47;5104646;28;20036;-71
2021/08/31 06:01:30;;;;;;;3.33;1.15;;;;;;;23.08;55.95;103103.28;5083475;28;20127;-71
2021/08/31 06:03:56;;;;;;;3.63;1.50;;;;;;;23.07;56.25;103099.78;5088570;28;20130;-71
2021/08/31 06:06:21;;;;;;;2.95;1.20;;;;;;;23.07;56.28;103102.47;5085981;28;20048;-71
2021/08/31 06:08:47;;;;;;;2.58;1.38;;;;;;;23.07;56.02;103102.47;5087338;28;20032;-70
2021/08/31 06:11:16;;;;;;;2.42;1.10;;;;;;;23.06;56.14;103098.09;5068306;28;20032;-70
2021/08/31 06:13:41;;;;;;;1.83;1.20;;;;;;;23.07;56.27;103109.66;5091709;28;20067;-70
2021/08/31 06:16:06;;;;;;;2.35;1.52;;;;;;;23.06;56.25;103114.16;5092809;28;20447;-70
2021/08/31 06:18:32;;;;;;;2.08;0.95;;;;;;;23.07;55.91;103113.16;5096955;28;20040;-70
2021/08/31 06:20:58;;;;;;;1.95;1.00;;;;;;;23.07;56.10;103123.03;5085492;28;20036;-70
2021/08/31 06:23:23;;;;;;;2.45;1.10;;;;;;;23.06;56.40;103127.56;5092892;28;20036;-70
2021/08/31 06:25:49;;;;;;;2.10;1.13;;;;;;;23.06;56.16;103129.41;5092795;28;20097;-70
2021/08/31 06:28:14;;;;;;;2.08;1.10;;;;;;;23.06;55.99;103132.06;5090893;28;20109;-70
2021/08/31 06:30:40;;;;;;;2.97;1.05;;;;;;;23.05;56.18;103133.91;5090405;28;20036;-70
2021/08/31 06:33:05;;;;;;;2.28;0.90;;;;;;;23.06;56.08;103132.91;5108040;28;20046;-70
2021/08/31 06:35:30;;;;;;;2.28;0.90;;;;;;;23.06;56.37;103143.63;5070630;28;20093;-70
2021/08/31 06:37:56;;;;;;;2.13;1.10;;;;;;;23.05;56.22;103133.91;5091349;28;20035;-70
2021/08/31 06:40:21;;;;;;;2.42;1.30;;;;;;;23.06;56.11;103142.78;5099981;28;20096;-70
2021/08/31 06:42:47;;;;;;;2.95;1.20;;;;;;;23.06;56.00;103148.13;5093932;28;20410;-70
2021/08/31 06:45:12;;;;;;;2.92;1.25;;;;;;;23.06;56.01;103143.63;5112353;28;20031;-70
2021/08/31 06:47:38;;;;;;;2.15;1.00;;;;;;;23.05;56.19;103141.94;5112637;28;20496;-70
2021/08/31 06:50:04;;;;;;;3.22;1.17;;;;;;;23.05;55.93;103141.94;5093616;28;20051;-70
2021/08/31 06:52:30;;;;;;;2.85;1.15;;;;;;;23.04;55.74;103139.41;5099760;28;20051;-70
2021/08/31 06:54:56;;;;;;;1.90;0.90;;;;;;;23.04;55.81;103137.59;5112701;28;20379;-70
2021/08/31 06:57:22;;;;;;;1.88;1.08;;;;;;;23.04;56.15;103142.94;5112695;28;20032;-71
2021/08/31 06:59:48;;;;;;;3.10;1.10;;;;;;;23.05;56.39;103139.28;5102107;28;20032;-72
2021/08/31 07:02:13;;;;;;;3.22;1.33;;;;;;;23.04;56.81;103148.31;5095395;28;20112;-69
2021/08/31 07:04:39;;;;;;;4.00;1.60;;;;;;;23.04;56.88;103142.94;5072164;28;20052;-66
2021/08/31 07:07:04;;;;;;;4.05;1.20;;;;;;;23.03;56.69;103146.59;5081234;28;20047;-66
2021/08/31 07:09:29;;;;;;;5.10;1.30;;;;;;;23.03;56.55;103146.59;5092026;28;20043;-66
2021/08/31 07:11:55;;;;;;;3.47;1.10;;;;;;;23.00;56.34;103146.94;5090603;28;20099;-67
2021/08/31 07:14:21;;;;;;;5.25;1.60;;;;;;;22.98;56.26;103149.78;5092069;28;20458;-66
2021/08/31 07:16:46;;;;;;;6.10;1.70;;;;;;;22.98;55.76;103149.78;5092797;28;20040;-67
2021/08/31 07:19:12;;;;;;;7.57;1.77;;;;;;;22.96;55.81;103153.63;5090608;28;20036;-67
2021/08/31 07:21:37;;;;;;;5.40;1.73;;;;;;;22.95;55.52;103155.47;5091014;28;20056;-67
2021/08/31 07:24:03;;;;;;;3.47;1.40;;;;;;;22.94;55.43;103150.28;5072127;28;20028;-69
2021/08/31 07:26:29;;;;;;;11.30;1.95;;;;;;;22.93;55.22;103152.09;5048346;28;20555;-68
2021/08/31 07:28:54;;;;;;;6.95;1.83;;;;;;;22.92;55.45;103147.75;5090178;28;20039;-68
2021/08/31 07:31:20;;;;;;;6.28;1.92;;;;;;;22.91;55.23;103159.47;5058004;28;20595;-68
2021/08/31 07:33:46;;;;;;;4.70;1.60;;;;;;;22.91;55.21;103163.97;5092736;28;20043;-67
2021/08/31 07:36:11;;;;;;;5.15;1.50;;;;;;;22.89;55.17;103166.81;5068762;28;20657;-67
2021/08/31 07:38:37;;;;;;;4.80;1.73;;;;;;;22.88;55.06;103172.31;5066536;28;20060;-67
2021/08/31 07:41:02;;;;;;;4.47;1.70;;;;;;;22.86;55.11;103171.63;5052511;28;20040;-67
2021/08/31 07:43:27;;;;;;;7.60;2.50;;;;;;;22.86;55.34;103166.28;5066548;28;20096;-68
2021/08/31 07:45:53;;;;;;;5.82;2.35;;;;;;;22.86;55.15;103182.34;5069167;28;20032;-68
2021/08/31 07:48:18;;;;;;;7.20;2.40;;;;;;;22.84;55.14;103181.66;5045167;28;20075;-67
2021/08/31 07:50:44;;;;;;;8.15;2.40;;;;;;;22.85;55.54;103178.00;5068978;28;20095;-67
2021/08/31 07:53:09;;;;;;;10.40;2.80;;;;;;;22.84;55.41;103166.44;5051722;28;20040;-67
2021/08/31 07:55:35;;;;;;;7.55;2.80;;;;;;;22.84;55.22;103173.63;5034522;28;20146;-67
2021/08/31 07:58:01;;;;;;;8.43;2.63;;;;;;;22.84;55.28;103179.84;5068931;28;20036;-67
2021/08/31 08:00:26;;;;;;;7.00;2.42;;;;;;;22.85;55.41;103169.97;5066667;28;20111;-67
2021/08/31 08:02:52;;;;;;;7.88;2.75;;;;;;;22.85;55.20;103175.31;5062967;28;20039;-66
2021/08/31 08:05:17;;;;;;;9.32;2.75;;;;;;;22.84;55.34;103171.81;5068867;28;20111;-67
2021/08/31 08:07:43;;;;;;;9.32;2.60;;;;;;;22.84;55.25;103173.63;5070167;28;20537;-66
2021/08/31 08:10:09;;;;;;;8.18;2.75;;;;;;;22.84;55.01;103173.63;5069244;28;20032;-67
2021/08/31 08:12:35;;;;;;;7.28;2.80;;;;;;;22.83;54.92;103172.81;5069110;28;20094;-66
2021/08/31 08:15:01;;;;;;;7.75;2.42;;;;;;;22.84;54.99;103184.34;5069866;28;20070;-67
2021/08/31 08:17:26;;;;;;;6.43;2.60;;;;;;;22.83;54.54;103171.97;5070154;28;20048;-66
2021/08/31 08:19:52;;;;;;;8.25;2.85;;;;;;;22.82;54.95;103184.50;5070067;28;20055;-67
2021/08/31 08:22:18;;;;;;;6.40;2.50;;;;;;;22.82;54.63;103186.31;5069261;28;20529;-66
2021/08/31 08:24:44;;;;;;;8.07;2.85;;;;;;;22.80;54.51;103185.66;5070434;28;20472;-66
2021/08/31 08:27:10;;;;;;;6.03;2.17;;;;;;;22.81;54.26;103190.00;5069350;28;20740;-66
2021/08/31 08:29:38;;;;;;;4.22;2.03;;;;;;;22.80;54.75;103182.97;5070534;28;20115;-67
2021/08/31 08:32:10;;;;;;;5.15;2.28;;;;;;;22.78;54.37;103179.63;5069500;28;20480;-66
2021/08/31 08:34:37;;;;;;;4.72;2.30;;;;;;;22.78;54.35;103185.81;5051797;28;20093;-67
2021/08/31 08:37:03;;;;;;;5.28;1.92;;;;;;;22.79;54.21;103192.84;5069223;28;20529;-67
2021/08/31 08:39:29;;;;;;;4.18;1.95;;;;;;;22.78;54.52;103196.50;5081041;28;20075;-67
2021/08/31 08:41:55;;;;;;;6.00;2.20;;;;;;;22.78;54.19;103199.19;5089697;28;20036;-67
2021/08/31 08:44:21;;;;;;;6.60;2.13;;;;;;;22.77;53.99;103194.00;5090139;28;20110;-66
2021/08/31 08:46:47;;;;;;;4.72;2.33;;;;;;;22.76;54.09;103203.03;5090071;28;20563;-67
2021/08/31 08:49:14;;;;;;;5.18;2.30;;;;;;;22.74;53.50;103205.88;5089766;28;20115;-67
2021/08/31 08:51:40;;;;;;;4.70;2.10;;;;;;;22.71;53.48;103201.66;5090115;28;20515;-67
2021/08/31 08:54:07;;;;;;;4.22;1.70;;;;;;;22.71;53.31;103206.16;5089590;28;20068;-67
2021/08/31 08:56:33;;;;;;;5.40;2.40;;;;;;;22.68;53.09;103211.84;5089618;28;20131;-67
2021/08/31 08:58:59;;;;;;;3.63;2.13;;;;;;;22.66;52.76;103212.00;5089779;28;20039;-66
2021/08/31 09:01:39;;;;;;;5.45;2.25;;;;;;;22.62;52.74;103209.81;5089143;28;20040;-67
2021/08/31 09:04:05;;;;;;;4.03;1.95;;;;;;;22.65;52.52;103210.31;5089881;28;20084;-67
2021/08/31 09:06:31;;;;;;;4.55;2.13;;;;;;;22.65;52.38;103220.19;5089339;28;20438;-67
2021/08/31 09:08:58;;;;;;;5.25;2.08;;;;;;;22.64;52.18;103227.38;5089776;28;20071;-67
2021/08/31 09:11:35;;;;;;;4.28;2.45;;;;;;;22.61;52.48;103225.03;5089855;28;20035;-67
2021/08/31 09:14:16;;;;;;;4.55;2.00;;;;;;;22.58;51.91;103217.31;5089645;28;20035;-66
2021/08/31 09:16:42;;;;;;;5.88;2.20;;;;;;;22.62;52.13;103221.34;5089304;28;20123;-67
2021/08/31 09:19:08;;;;;;;4.88;2.33;;;;;;;22.61;51.82;103226.88;5089600;28;20032;-66
2021/08/31 09:21:34;;;;;;;4.90;2.30;;;;;;;22.60;51.57;103220.66;5089143;28;20475;-66
2021/08/31 09:24:00;;;;;;;4.70;2.35;;;;;;;22.60;51.68;103230.53;5089273;28;20386;-66
2021/08/31 09:26:43;;;;;;;5.97;2.25;;;;;;;22.56;51.54;103229.16;5089107;28;20036;-67
2021/08/31 09:29:20;;;;;;;4.25;2.00;;;;;;;22.56;51.59;103235.34;5089085;28;20108;-66
2021/08/31 09:31:50;;;;;;;4.97;1.92;;;;;;;22.58;51.62;103237.88;5089537;28;20039;-66
2021/08/31 09:34:43;;;;;;;4.15;2.28;;;;;;;22.54;51.36;103241.84;5088841;28;20032;-66
2021/08/31 09:37:38;;;;;;;5.47;2.05;;;;;;;22.53;51.20;103254.38;5088402;28;20073;-67
2021/08/31 09:40:15;;;;;;;5.20;2.33;;;;;;;22.53;51.16;103254.38;5074742;28;20051;-67
2021/08/31 09:43:01;;;;;;;4.85;2.10;;;;;;;22.52;51.36;103255.38;5064383;28;20399;-67
2021/08/31 09:45:38;;;;;;;4.28;2.40;;;;;;;22.55;51.20;103246.19;5062857;28;20101;-66
2021/08/31 09:48:07;;;;;;;6.40;2.38;;;;;;;22.56;51.25;103251.38;5068954;28;20040;-66
2021/08/31 09:50:43;;;;;;;5.57;2.40;;;;;;;22.53;51.32;103257.06;5068317;28;20360;-66
2021/08/31 09:53:18;;;;;;;5.00;2.05;;;;;;;22.52;51.24;103251.88;5055592;28;20078;-67
2021/08/31 09:55:46;;;;;;;5.75;2.70;;;;;;;22.53;51.09;103262.41;5068669;28;20420;-66
2021/08/31 09:58:24;;;;;;;7.85;2.53;;;;;;;22.53;50.68;103262.41;5068173;28;20064;-66
2021/08/31 10:00:52;;;;;;;5.70;2.28;;;;;;;22.53;50.99;103257.06;5068773;28;20036;-66
2021/08/31 10:03:18;;;;;;;3.80;2.00;;;;;;;22.53;50.63;103267.75;5068351;28;20044;-66
2021/08/31 10:05:45;;;;;;;6.15;2.08;;;;;;;22.53;50.60;103261.56;5068466;28;20442;-67
2021/08/31 10:08:12;;;;;;;3.95;2.10;;;;;;;22.52;50.87;103259.91;5068397;28;20083;-67
2021/08/31 10:10:39;;;;;;;5.32;2.55;;;;;;;22.53;50.38;103272.28;5068636;28;20089;-66
2021/08/31 10:13:18;;;;;;;6.13;2.40;;;;;;;22.49;50.56;103266.41;5068260;28;20075;-67
2021/08/31 10:15:52;;;;;;;6.35;2.47;;;;;;;22.50;50.44;103264.56;5069046;28;20599;-66
2021/08/31 10:18:20;;;;;;;5.32;2.45;;;;;;;22.51;50.18;103264.41;5068189;28;20114;-66
2021/08/31 10:20:50;;;;;;;5.85;2.30;;;;;;;22.49;50.31;103263.72;5068362;28;20028;-66
2021/08/31 10:23:22;;;;;;;6.13;2.28;;;;;;;22.50;50.21;103257.38;5068242;28;20075;-67
2021/08/31 10:25:48;;;;;;;5.60;2.40;;;;;;;22.51;50.28;103271.59;5068340;28;20059;-67
2021/08/31 10:28:23;;;;;;;6.68;2.53;;;;;;;22.49;50.05;103269.06;5067898;28;20040;-68
2021/08/31 10:30:50;;;;;;;9.07;2.33;;;;;;;22.52;49.95;103265.25;5068314;28;20034;-66
2021/08/31 10:33:31;;;;;;;3.22;2.00;;;;;;;22.48;50.18;103272.75;5068398;28;20036;-67
2021/08/31 10:35:57;;;;;;;6.07;2.60;;;;;;;22.51;49.98;103280.47;5067980;28;20518;-67
2021/08/31 10:38:51;;;;;;;3.50;2.10;;;;;;;22.46;49.86;103272.06;5068200;28;20036;-67
2021/08/31 10:41:42;;;;;;;6.07;2.15;;;;;;;22.47;49.77;103268.41;5088880;28;20107;-67
2021/08/31 10:44:12;;;;;;;6.28;2.40;;;;;;;22.51;49.74;103274.25;5088299;28;20028;-67
2021/08/31 10:46:56;;;;;;;4.47;2.20;;;;;;;22.47;49.59;103276.44;5088684;28;20043;-68
2021/08/31 10:49:21;;;;;;;5.32;2.60;;;;;;;22.50;49.57;103272.59;5080943;28;20040;-68
2021/08/31 10:52:02;;;;;;;6.95;2.38;;;;;;;22.46;49.11;103276.59;5088163;28;20036;-68
2021/08/31 10:54:48;;;;;;;4.22;2.40;;;;;;;22.47;49.34;103272.91;5088727;28;20032;-68
2021/08/31 10:57:35;;;;;;;5.18;2.42;;;;;;;22.47;49.12;103283.59;5090383;28;20035;-68
2021/08/31 11:00:24;;;;;;;4.15;2.50;;;;;;;22.50;49.53;103278.78;5092106;28;20111;-70
2021/08/31 11:02:56;;;;;;;7.28;2.78;;;;;;;22.50;48.96;103281.47;5084760;28;20040;-68
2021/08/31 11:05:22;;;;;;;3.97;2.10;;;;;;;22.51;48.85;103279.63;5091856;28;20027;-69
2021/08/31 11:08:14;;;;;;;4.78;2.17;;;;;;;22.46;48.80;103284.59;5089033;28;20035;-68
2021/08/31 11:10:42;;;;;;;5.78;2.30;;;;;;;22.50;48.98;103278.78;5088214;28;20035;-68
2021/08/31 11:13:24;;;;;;;4.22;2.65;;;;;;;22.48;49.01;103275.44;5092111;28;20035;-68
2021/08/31 11:15:56;;;;;;;3.60;2.25;;;;;;;22.49;48.72;103282.44;5080128;28;20115;-68
2021/08/31 11:18:21;;;;;;;4.65;2.70;;;;;;;22.51;48.77;103280.47;5076227;28;20027;-68
2021/08/31 11:20:47;;;;;;;4.22;2.38;;;;;;;22.51;48.62;103280.47;5092005;28;20024;-68
2021/08/31 11:23:19;;;;;;;5.88;2.47;;;;;;;22.50;49.00;103281.47;5092143;28;20119;-68
2021/08/31 11:25:56;;;;;;;4.97;2.60;;;;;;;22.50;48.57;103277.94;5092130;28;20016;-68
2021/08/31 11:28:25;;;;;;;7.03;2.60;;;;;;;22.50;48.34;103284.13;5091332;28;20036;-68